Time;durP1;ratioP1;P1;durP2;ratioP2;P2;SDS_P1;SDS_P2;PMS_P1;PMS_P2;Temp;Humidity;BMP_temperature;BMP_pressure;BME280_temperature;BME280_humidity;BME280_pressure;Samples;Min_cycle;Max_cycle;Signal;HPM_P1;HPM_P2
2022/05/05 00:02:20;;;;;;;16.20;11.20;;;;;;;12.12;52.41;100619.25;110332;1259;22066;-75
2022/05/05 00:04:49;;;;;;;18.70;11.80;;;;;;;12.10;52.41;100621.43;110027;1259;23704;-77
2022/05/05 00:07:18;;;;;;;17.30;11.80;;;;;;;12.07;52.54;100622.99;109312;1266;21972;-77
2022/05/05 00:09:47;;;;;;;13.80;11.60;;;;;;;12.04;52.57;100627.79;108813;1267;23032;-77
2022/05/05 00:15:07;;;;;;;24.80;13.40;;;;;;;11.97;52.89;100628.99;109505;1263;23097;-76
2022/05/05 00:17:37;;;;;;;16.80;11.50;;;;;;;11.96;53.03;100629.33;108969;1270;21990;-76
2022/05/05 00:20:07;;;;;;;16.30;12.80;;;;;;;11.94;53.03;100630.27;109017;1270;21982;-76
2022/05/05 00:22:36;;;;;;;16.60;13.40;;;;;;;11.90;53.06;100634.20;108912;1269;22122;-77
2022/05/05 00:25:06;;;;;;;16.80;13.60;;;;;;;11.86;53.28;100630.58;108978;1264;23104;-77
2022/05/05 00:27:35;;;;;;;17.00;14.00;;;;;;;11.85;53.45;100633.38;109649;1264;22005;-77
2022/05/05 00:30:05;;;;;;;19.30;14.90;;;;;;;11.85;53.57;100632.18;109573;1263;23655;-76
2022/05/05 00:32:34;;;;;;;18.60;14.50;;;;;;;11.83;53.56;100631.84;109531;1264;23738;-77
2022/05/05 00:35:04;;;;;;;17.70;14.70;;;;;;;11.80;53.57;100630.52;109997;1254;21962;-77
2022/05/05 00:37:34;;;;;;;16.30;14.00;;;;;;;11.79;53.73;100626.88;110611;1254;22024;-77
2022/05/05 00:40:04;;;;;;;18.40;15.30;;;;;;;11.79;53.81;100633.23;110517;1253;23066;-76
2022/05/05 00:42:35;;;;;;;17.30;14.50;;;;;;;11.78;53.94;100634.27;110524;1254;21955;-77
2022/05/05 00:45:05;;;;;;;20.60;15.60;;;;;;;11.77;54.03;100636.33;110663;1254;23592;-75
2022/05/05 00:47:35;;;;;;;17.70;15.80;;;;;;;11.75;54.09;100635.08;110523;1254;22010;-75
2022/05/05 00:50:05;;;;;;;23.30;16.30;;;;;;;11.75;54.20;100630.57;110325;1258;21956;-75
2022/05/05 00:52:34;;;;;;;17.70;15.90;;;;;;;11.72;54.19;100630.30;110382;1255;23071;-76
2022/05/05 00:55:06;;;;;;;19.00;15.10;;;;;;;11.70;54.25;100628.79;109538;1263;21982;-77
2022/05/05 00:57:36;;;;;;;20.70;15.50;;;;;;;11.67;54.37;100627.30;109973;1260;23677;-76
2022/05/05 01:00:06;;;;;;;16.80;15.00;;;;;;;11.64;54.40;100625.44;109805;1262;23696;-76
2022/05/05 01:02:35;;;;;;;17.10;15.10;;;;;;;11.61;54.58;100621.66;109971;1261;23169;-76
2022/05/05 01:05:05;;;;;;;16.70;13.60;;;;;;;11.59;54.60;100623.85;109319;1263;23086;-76
2022/05/05 01:07:38;;;;;;;18.80;14.30;;;;;;;11.58;54.65;100625.34;109962;1260;23667;-75
2022/05/05 01:10:08;;;;;;;17.30;13.30;;;;;;;11.57;54.72;100624.58;109989;1258;23088;-77
2022/05/05 01:12:37;;;;;;;17.30;12.80;;;;;;;11.54;54.59;100626.46;110289;1254;23168;-76
2022/05/05 01:15:08;;;;;;;17.50;14.10;;;;;;;11.53;54.78;100628.52;110514;1252;21961;-75
2022/05/05 01:17:37;;;;;;;17.50;12.50;;;;;;;11.55;55.00;100621.84;110636;1254;22028;-75
2022/05/05 01:20:16;;;;;;;19.50;16.20;;;;;;;11.56;55.06;100623.65;110523;1254;21957;-75
2022/05/05 01:22:46;;;;;;;19.30;15.30;;;;;;;11.55;55.16;100621.73;110293;1257;22037;-76
2022/05/05 01:28:13;;;;;;;23.70;16.30;;;;;;;11.53;55.26;100623.59;110165;1257;22752;-75
2022/05/05 01:30:48;;;;;;;20.30;16.50;;;;;;;11.49;55.27;100627.50;110000;1257;21964;-75
2022/05/05 01:33:27;;;;;;;20.20;15.90;;;;;;;11.45;55.20;100628.00;109961;1260;23674;-75
2022/05/05 01:35:58;;;;;;;20.50;14.60;;;;;;;11.40;55.42;100629.39;109271;1263;22087;-75
2022/05/05 01:38:36;;;;;;;17.70;14.40;;;;;;;11.37;55.52;100629.20;109765;1261;22475;-75
2022/05/05 01:41:12;;;;;;;19.70;15.40;;;;;;;11.33;55.49;100631.40;109931;1256;21973;-75
2022/05/05 01:43:45;;;;;;;18.40;15.10;;;;;;;11.30;55.78;100632.83;110170;1260;22079;-76
2022/05/05 01:46:14;;;;;;;16.90;15.10;;;;;;;11.28;55.74;100634.88;109443;1263;22022;-75
2022/05/05 01:48:43;;;;;;;17.30;14.90;;;;;;;11.28;55.88;100632.84;109654;1262;21987;-76
2022/05/05 01:51:13;;;;;;;20.20;16.30;;;;;;;11.28;56.02;100633.82;109756;1263;22187;-77
2022/05/05 01:53:42;;;;;;;20.40;15.20;;;;;;;11.28;56.04;100636.33;109870;1258;22541;-75
2022/05/05 01:56:12;;;;;;;15.90;14.30;;;;;;;11.25;56.12;100638.73;110337;1257;21965;-76
2022/05/05 01:58:42;;;;;;;18.60;16.60;;;;;;;11.23;56.41;100638.61;110422;1256;23703;-77
2022/05/05 02:01:12;;;;;;;18.70;16.90;;;;;;;11.21;56.35;100638.65;110365;1259;22813;-76
2022/05/05 02:03:42;;;;;;;19.80;17.30;;;;;;;11.18;56.45;100637.95;109772;1259;22003;-75
2022/05/05 02:06:13;;;;;;;20.80;17.00;;;;;;;11.16;56.60;100638.91;109979;1257;23658;-75
2022/05/05 02:08:43;;;;;;;18.80;16.70;;;;;;;11.09;56.42;100638.20;110162;1258;23643;-76
2022/05/05 02:11:12;;;;;;;19.50;16.80;;;;;;;11.05;56.68;100638.14;110153;1259;22831;-76
2022/05/05 02:13:41;;;;;;;21.20;17.30;;;;;;;11.03;56.77;100637.25;110002;1257;21984;-76
2022/05/05 02:16:11;;;;;;;22.20;16.80;;;;;;;11.02;56.89;100637.57;109264;1265;22558;-76
2022/05/05 02:18:40;;;;;;;23.10;17.20;;;;;;;11.00;57.00;100635.26;109573;1264;23138;-75
2022/05/05 02:21:09;;;;;;;18.30;16.40;;;;;;;11.00;57.12;100635.10;108866;1267;23576;-75
2022/05/05 02:23:38;;;;;;;19.40;17.30;;;;;;;10.98;57.19;100638.79;109683;1264;23091;-77
2022/05/05 02:26:08;;;;;;;21.50;18.00;;;;;;;10.94;57.20;100638.55;109595;1264;21990;-75
2022/05/05 02:28:37;;;;;;;20.50;17.10;;;;;;;10.89;57.25;100639.45;109724;1262;22300;-76
2022/05/05 02:31:06;;;;;;;23.50;18.60;;;;;;;10.84;57.39;100639.27;109586;1264;22032;-76
2022/05/05 02:33:35;;;;;;;22.50;17.40;;;;;;;10.79;57.52;100638.06;109667;1260;23155;-76
2022/05/05 02:38:55;;;;;;;19.50;17.00;;;;;;;10.69;57.79;100640.69;109919;1257;22013;-76
2022/05/05 02:41:24;;;;;;;22.90;16.60;;;;;;;10.67;58.00;100641.08;110682;1253;22011;-75
2022/05/05 02:43:56;;;;;;;18.30;16.50;;;;;;;10.68;58.12;100641.02;110523;1254;24924;-75
2022/05/05 02:46:26;;;;;;;18.50;16.50;;;;;;;10.69;58.10;100641.25;110645;1253;21965;-75
2022/05/05 02:48:55;;;;;;;18.90;16.20;;;;;;;10.70;58.25;100644.88;110324;1259;22233;-75
2022/05/05 02:51:24;;;;;;;22.50;16.70;;;;;;;10.69;58.24;100645.47;110138;1260;22935;-75
2022/05/05 02:56:41;;;;;;;22.70;17.80;;;;;;;10.60;58.35;100651.19;109780;1263;23053;-75
2022/05/05 02:59:10;;;;;;;19.90;17.30;;;;;;;10.54;58.33;100648.95;109690;1263;22281;-75
2022/05/05 03:01:39;;;;;;;20.30;15.90;;;;;;;10.49;58.58;100649.64;109612;1264;23075;-75
2022/05/05 03:04:08;;;;;;;23.50;18.50;;;;;;;10.47;58.67;100647.63;109574;1263;23716;-75
2022/05/05 03:06:37;;;;;;;24.30;17.20;;;;;;;10.45;58.77;100645.54;109855;1257;22923;-76
2022/05/05 03:09:06;;;;;;;22.00;17.60;;;;;;;10.46;58.89;100650.89;109993;1257;22711;-75
2022/05/05 03:11:35;;;;;;;20.30;18.10;;;;;;;10.46;58.89;100648.27;109284;1263;21973;-75
2022/05/05 03:14:04;;;;;;;25.00;20.80;;;;;;;10.44;59.02;100645.42;109074;1270;22753;-75
2022/05/05 03:16:34;;;;;;;23.00;20.30;;;;;;;10.44;59.14;100646.52;108929;1270;22374;-75
2022/05/05 03:19:03;;;;;;;21.30;19.00;;;;;;;10.42;59.06;100644.10;108704;1273;24036;-75
2022/05/05 03:21:32;;;;;;;29.40;20.50;;;;;;;10.38;58.98;100644.86;108851;1270;21978;-75
2022/05/05 03:24:03;;;;;;;25.40;20.10;;;;;;;10.32;59.10;100649.98;108723;1273;22065;-75
2022/05/05 03:26:32;;;;;;;29.60;21.00;;;;;;;10.29;59.37;100649.80;108825;1271;22048;-75
2022/05/05 03:29:02;;;;;;;25.40;21.30;;;;;;;10.27;59.62;100652.41;108866;1270;23605;-76
2022/05/05 03:31:34;;;;;;;26.50;21.50;;;;;;;10.25;59.67;100654.73;108931;1264;23124;-76
2022/05/05 03:34:05;;;;;;;31.90;23.40;;;;;;;10.24;59.86;100659.09;109798;1263;21975;-76
2022/05/05 03:36:34;;;;;;;28.20;20.90;;;;;;;10.24;59.94;100655.62;109821;1260;21964;-76
2022/05/05 03:39:03;;;;;;;31.00;22.40;;;;;;;10.25;60.09;100657.75;110337;1257;22747;-77
2022/05/05 03:41:33;;;;;;;24.20;21.40;;;;;;;10.26;60.09;100655.71;110322;1254;22550;-75
2022/05/05 03:44:03;;;;;;;34.60;24.60;;;;;;;10.26;60.13;100654.45;110659;1254;21986;-76
2022/05/05 03:46:32;;;;;;;26.80;23.90;;;;;;;10.25;60.18;100653.48;110689;1254;23024;-76
2022/05/05 03:49:01;;;;;;;24.50;21.70;;;;;;;10.24;60.12;100653.81;110209;1260;21971;-77
2022/05/05 03:51:30;;;;;;;28.10;22.90;;;;;;;10.24;60.36;100653.64;109688;1264;23051;-77
2022/05/05 03:54:01;;;;;;;24.50;21.40;;;;;;;10.27;60.53;100654.06;109281;1264;23582;-76
2022/05/05 03:56:30;;;;;;;27.30;21.40;;;;;;;10.32;60.64;100656.20;109681;1264;21984;-78
2022/05/05 03:58:59;;;;;;;25.70;20.60;;;;;;;10.40;60.82;100660.47;109635;1263;21995;-76
2022/05/05 04:01:29;;;;;;;29.30;21.70;;;;;;;10.48;60.86;100662.77;108937;1267;22036;-77
2022/05/05 04:03:58;;;;;;;27.10;20.70;;;;;;;10.55;60.92;100660.63;108919;1269;22052;-76
2022/05/05 04:06:27;;;;;;;40.60;23.10;;;;;;;10.60;60.77;100662.59;108705;1270;22853;-75
2022/05/05 04:08:57;;;;;;;28.60;22.30;;;;;;;10.64;60.62;100666.83;108953;1264;22074;-75
2022/05/05 04:11:26;;;;;;;27.30;20.90;;;;;;;10.64;60.51;100667.30;109569;1264;22023;-76
2022/05/05 04:13:55;;;;;;;27.40;21.00;;;;;;;10.66;60.42;100668.35;109325;1263;23010;-76
2022/05/05 04:16:24;;;;;;;27.80;21.20;;;;;;;10.65;60.28;100663.98;109515;1266;21968;-76
2022/05/05 04:19:03;;;;;;;22.90;20.20;;;;;;;10.65;60.13;100667.69;109416;1260;22926;-76
2022/05/05 04:21:37;;;;;;;29.70;20.70;;;;;;;10.65;60.20;100664.05;110289;1258;21975;-76
2022/05/05 04:24:07;;;;;;;24.00;19.70;;;;;;;10.70;60.38;100667.50;110342;1254;24124;-76
2022/05/05 04:26:37;;;;;;;23.90;21.40;;;;;;;10.79;60.46;100670.31;110732;1254;21961;-76
2022/05/05 04:29:09;;;;;;;27.20;21.60;;;;;;;10.88;60.42;100668.84;110839;1253;23030;-75
2022/05/05 04:31:40;;;;;;;26.70;20.70;;;;;;;10.93;60.07;100673.12;110659;1251;22479;-76
2022/05/05 04:34:18;;;;;;;27.70;19.70;;;;;;;10.96;59.87;100676.26;110634;1251;22631;-77
2022/05/05 04:36:49;;;;;;;22.00;19.70;;;;;;;11.02;59.80;100679.88;110628;1254;22215;-76
2022/05/05 04:39:20;;;;;;;22.60;18.40;;;;;;;11.11;59.89;100679.49;110507;1254;23595;-75
2022/05/05 04:41:54;;;;;;;23.00;17.80;;;;;;;11.22;59.79;100677.88;110789;1253;22853;-75
2022/05/05 04:44:29;;;;;;;24.10;18.10;;;;;;;11.36;59.51;100677.13;110596;1254;23039;-75
2022/05/05 04:46:59;;;;;;;24.70;18.10;;;;;;;11.50;59.27;100677.02;110383;1257;21996;-75
2022/05/05 04:49:29;;;;;;;23.80;18.10;;;;;;;11.63;58.96;100673.63;110335;1257;23695;-77
2022/05/05 04:51:58;;;;;;;18.80;16.80;;;;;;;11.80;58.81;100669.91;110181;1260;23601;-76
2022/05/05 04:54:27;;;;;;;20.40;18.30;;;;;;;11.94;58.40;100670.09;110224;1258;21966;-75
2022/05/05 04:56:56;;;;;;;20.20;17.10;;;;;;;12.05;57.87;100669.05;110202;1257;22863;-75
2022/05/05 04:59:25;;;;;;;20.40;18.20;;;;;;;12.17;57.36;100670.98;110361;1256;22006;-75
2022/05/05 05:01:54;;;;;;;23.20;18.80;;;;;;;12.29;57.19;100674.91;110337;1258;23579;-76
2022/05/05 05:04:23;;;;;;;23.20;19.90;;;;;;;12.41;56.95;100676.19;110478;1254;23799;-75
2022/05/05 05:06:52;;;;;;;25.90;18.90;;;;;;;12.56;56.78;100675.63;110645;1252;21959;-75
2022/05/05 05:09:21;;;;;;;24.30;19.20;;;;;;;12.74;56.61;100677.30;110746;1253;21967;-75
2022/05/05 05:11:50;;;;;;;22.60;19.50;;;;;;;12.95;56.46;100682.84;110624;1253;21967;-74
2022/05/05 05:14:19;;;;;;;24.50;18.30;;;;;;;13.17;56.20;100680.67;110701;1253;22170;-75
2022/05/05 05:16:48;;;;;;;21.00;18.30;;;;;;;13.42;55.69;100685.60;110470;1251;23040;-75
2022/05/05 05:19:17;;;;;;;21.40;19.10;;;;;;;13.69;55.28;100688.98;110451;1257;23380;-76
2022/05/05 05:21:47;;;;;;;21.10;18.20;;;;;;;13.96;54.88;100688.42;110430;1254;22749;-75
2022/05/05 05:24:17;;;;;;;25.80;19.90;;;;;;;14.22;54.22;100682.48;110098;1260;22013;-75
2022/05/05 05:26:46;;;;;;;21.70;18.70;;;;;;;14.49;53.70;100683.83;109646;1261;22255;-75
2022/05/05 05:29:15;;;;;;;19.60;17.60;;;;;;;14.79;53.24;100683.26;109990;1260;23064;-75
2022/05/05 05:31:44;;;;;;;21.00;17.00;;;;;;;15.10;52.84;100685.87;109614;1263;23030;-75
2022/05/05 05:34:19;;;;;;;33.40;18.20;;;;;;;15.42;52.18;100684.34;109935;1260;21992;-76
2022/05/05 05:36:51;;;;;;;20.00;16.30;;;;;;;15.75;51.52;100686.64;109905;1257;21975;-75
2022/05/05 05:39:21;;;;;;;21.50;17.20;;;;;;;16.06;50.87;100687.48;110372;1257;24324;-76
2022/05/05 05:41:50;;;;;;;24.70;16.60;;;;;;;16.37;49.80;100691.77;110368;1254;22858;-75
2022/05/05 05:44:19;;;;;;;19.00;15.10;;;;;;;16.57;48.81;100691.31;110782;1253;22025;-75
2022/05/05 05:46:48;;;;;;;18.60;15.10;;;;;;;16.86;48.97;100692.17;110581;1254;23671;-75
2022/05/05 05:49:17;;;;;;;20.80;15.70;;;;;;;17.15;48.04;100691.36;110237;1257;22072;-76
2022/05/05 05:51:46;;;;;;;19.10;15.10;;;;;;;17.44;47.19;100695.02;109943;1260;22021;-76
2022/05/05 05:54:17;;;;;;;18.10;15.30;;;;;;;17.64;46.14;100693.75;109904;1260;22959;-76
2022/05/05 05:56:46;;;;;;;20.30;14.90;;;;;;;17.88;45.93;100696.72;109704;1260;21978;-76
2022/05/05 05:59:15;;;;;;;23.60;15.30;;;;;;;18.11;45.12;100699.86;109913;1260;22026;-76
2022/05/05 06:04:32;;;;;;;18.20;13.90;;;;;;;18.90;44.81;100697.58;109936;1260;21978;-75
2022/05/05 06:07:01;;;;;;;16.70;13.60;;;;;;;19.27;43.44;100696.30;109996;1257;23756;-75
2022/05/05 06:09:30;;;;;;;19.60;13.30;;;;;;;19.59;42.75;100693.19;110361;1254;23624;-77
2022/05/05 06:12:00;;;;;;;20.00;13.40;;;;;;;19.91;42.27;100695.23;110732;1253;21973;-78
2022/05/05 06:14:30;;;;;;;16.30;14.60;;;;;;;20.17;41.09;100701.05;110660;1254;22085;-78
2022/05/05 06:17:03;;;;;;;16.50;14.20;;;;;;;20.34;40.98;100699.24;110707;1254;22244;-78
2022/05/05 06:19:33;;;;;;;23.50;15.00;;;;;;;20.60;40.56;100704.59;110579;1254;23022;-77
2022/05/05 06:22:04;;;;;;;21.60;14.60;;;;;;;20.70;39.53;100703.10;110218;1257;21969;-76
2022/05/05 06:24:33;;;;;;;22.40;15.70;;;;;;;20.78;39.36;100706.09;110406;1257;22204;-77
2022/05/05 06:27:03;;;;;;;20.90;14.00;;;;;;;21.00;39.55;100706.48;110236;1257;22001;-79
2022/05/05 06:29:32;;;;;;;23.20;14.60;;;;;;;21.26;39.21;100706.05;110333;1257;23003;-78
2022/05/05 06:32:01;;;;;;;20.70;14.90;;;;;;;21.54;38.77;100709.04;110335;1257;21963;-78
2022/05/05 06:34:30;;;;;;;22.10;14.00;;;;;;;21.84;38.73;100707.96;110377;1255;23539;-76
2022/05/05 06:36:59;;;;;;;19.10;14.70;;;;;;;22.16;38.02;100708.08;110341;1259;21978;-77
2022/05/05 06:39:28;;;;;;;19.70;13.80;;;;;;;22.30;37.10;100709.30;110468;1257;22967;-78
2022/05/05 06:41:58;;;;;;;23.60;15.00;;;;;;;22.55;37.38;100711.27;110029;1256;21983;-78
2022/05/05 06:44:31;;;;;;;16.90;14.10;;;;;;;22.83;36.55;100712.52;110052;1257;22372;-78
2022/05/05 06:47:00;;;;;;;22.50;14.90;;;;;;;23.01;36.17;100710.40;110474;1253;23039;-78
2022/05/05 06:49:30;;;;;;;25.90;23.20;;;;;;;23.23;35.91;100707.99;110640;1251;231727;-77
2022/05/05 06:51:59;;;;;;;26.40;19.60;;;;;;;23.53;35.80;100711.48;110540;1254;21998;-78
2022/05/05 06:54:34;;;;;;;21.80;16.20;;;;;;;23.83;35.34;100712.13;110632;1252;23035;-78
2022/05/05 06:57:05;;;;;;;22.60;14.50;;;;;;;24.16;34.72;100715.04;110665;1251;21969;-78
2022/05/05 06:59:34;;;;;;;15.80;13.20;;;;;;;24.44;33.98;100718.73;110649;1251;21955;-78
2022/05/05 07:02:04;;;;;;;18.10;14.10;;;;;;;24.69;33.32;100720.05;110862;1251;21976;-78
2022/05/05 07:07:22;;;;;;;16.90;13.30;;;;;;;25.12;32.13;100722.27;110721;1250;22991;-79
2022/05/05 07:12:38;;;;;;;14.60;13.10;;;;;;;25.72;31.81;100725.14;110806;1251;23691;-77
2022/05/05 07:15:08;;;;;;;14.70;12.90;;;;;;;26.02;31.44;100728.94;110546;1254;22160;-81
2022/05/05 07:17:37;;;;;;;14.60;12.10;;;;;;;26.25;30.70;100729.45;110684;1251;23132;-77
2022/05/05 07:20:08;;;;;;;13.40;11.80;;;;;;;26.46;29.99;100730.38;110687;1254;22206;-78
2022/05/05 07:22:37;;;;;;;19.10;11.80;;;;;;;26.62;29.32;100728.50;110495;1253;22259;-77
2022/05/05 07:25:07;;;;;;;15.60;11.50;;;;;;;26.78;28.88;100726.50;110772;1251;22219;-77
2022/05/05 07:27:38;;;;;;;15.10;11.20;;;;;;;26.90;28.45;100727.34;110542;1254;22023;-76
2022/05/05 07:30:08;;;;;;;;;;;;;;;26.99;28.31;100727.27;110725;1251;22173;-77
2022/05/05 07:32:37;;;;;;;14.80;9.30;;;;;;;27.07;28.12;100727.43;110686;1254;22003;-78
2022/05/05 07:35:07;;;;;;;19.00;11.50;;;;;;;27.22;27.85;100727.91;110729;1254;22974;-77
2022/05/05 07:37:37;;;;;;;15.90;8.90;;;;;;;27.39;27.57;100728.38;110633;1254;23086;-77
2022/05/05 07:40:08;;;;;;;10.80;7.50;;;;;;;27.52;26.65;100726.86;110508;1253;22016;-77
2022/05/05 07:42:37;;;;;;;;;;;;;;;27.55;26.14;100723.98;110822;1252;21956;-77
2022/05/05 07:45:08;;;;;;;13.00;7.30;;;;;;;27.42;25.81;100722.39;110684;1253;21972;-77
2022/05/05 07:47:38;;;;;;;12.40;7.80;;;;;;;27.43;26.22;100722.45;110788;1253;23846;-77
2022/05/05 07:50:09;;;;;;;9.30;6.40;;;;;;;27.52;26.27;100723.87;110762;1253;21956;-77
2022/05/05 07:52:38;;;;;;;;;;;;;;;27.65;25.49;100724.96;110691;1254;23032;-77
2022/05/05 07:55:08;;;;;;;11.20;6.00;;;;;;;27.60;25.40;100726.05;110670;1252;21956;-77
2022/05/05 07:57:47;;;;;;;11.90;6.80;;;;;;;27.76;25.38;100725.19;110779;1252;21973;-78
2022/05/05 08:00:21;;;;;;;7.20;6.40;;;;;;;27.95;25.10;100722.50;110741;1252;23060;-77
2022/05/05 08:02:58;;;;;;;10.30;6.40;;;;;;;28.15;24.56;100727.34;110742;1253;21953;-76
2022/05/05 08:05:30;;;;;;;11.80;7.10;;;;;;;28.27;24.08;100730.20;110498;1257;22494;-80
2022/05/05 08:07:59;;;;;;;7.30;5.40;;;;;;;28.34;23.98;100731.73;110504;1257;21966;-77
2022/05/05 08:10:33;;;;;;;9.40;6.60;;;;;;;28.51;23.97;100727.13;110317;1257;23121;-77
2022/05/05 08:13:05;;;;;;;9.50;6.80;;;;;;;28.69;23.58;100721.73;110106;1258;21978;-77
2022/05/05 08:15:35;;;;;;;8.50;6.00;;;;;;;28.87;23.30;100719.52;110308;1257;23716;-77
2022/05/05 08:18:04;;;;;;;12.50;6.80;;;;;;;29.04;23.08;100724.54;110204;1258;21967;-77
2022/05/05 08:20:34;;;;;;;10.20;6.50;;;;;;;29.14;23.15;100725.89;110254;1257;21975;-78
2022/05/05 08:23:03;;;;;;;11.60;5.80;;;;;;;29.10;23.04;100727.77;110329;1257;22599;-79
2022/05/05 08:28:30;;;;;;;5.90;4.40;;;;;;;29.27;22.49;100725.52;110312;1256;21965;-78
2022/05/05 08:30:59;;;;;;;6.70;4.50;;;;;;;29.17;21.96;100733.39;110376;1252;21962;-78
2022/05/05 08:33:29;;;;;;;9.10;4.60;;;;;;;29.08;22.06;100731.48;110633;1251;23064;-77
2022/05/05 08:35:59;;;;;;;7.10;4.60;;;;;;;29.17;22.17;100731.77;110693;1250;22021;-78
2022/05/05 08:38:28;;;;;;;17.20;15.30;;;;;;;29.15;21.72;100734.11;110703;1250;21976;-78
2022/05/05 08:40:58;;;;;;;10.30;5.40;;;;;;;29.27;21.96;100732.54;110707;1251;22739;-78
2022/05/05 08:43:28;;;;;;;12.10;5.00;;;;;;;29.40;21.56;100733.27;110739;1250;22734;-78
2022/05/05 08:46:24;;;;;;;7.30;3.90;;;;;;;29.40;21.34;100734.63;110716;1249;21968;-78
2022/05/05 08:49:01;;;;;;;7.30;4.80;;;;;;;29.44;21.23;100736.23;110475;1256;23577;-73
2022/05/05 08:51:46;;;;;;;8.50;4.30;;;;;;;29.44;21.22;100735.69;110261;1256;21976;-78
2022/05/05 08:54:16;;;;;;;7.40;4.30;;;;;;;29.31;21.49;100733.17;110605;1256;22069;-80
2022/05/05 08:56:50;;;;;;;;;;;;;;;29.12;22.50;100737.00;110278;1256;22073;-79
2022/05/05 08:59:24;;;;;;;5.70;4.40;;;;;;;28.85;23.11;100738.45;110443;1257;23054;-81
2022/05/05 09:01:57;;;;;;;6.30;5.60;;;;;;;28.65;22.88;100740.89;110238;1256;21971;-79
2022/05/05 09:04:27;;;;;;;7.50;4.50;;;;;;;28.55;23.18;100740.50;110653;1256;23149;-79
2022/05/05 09:06:56;;;;;;;10.10;4.80;;;;;;;28.61;23.83;100741.77;110671;1249;21964;-80
2022/05/05 09:09:34;;;;;;;6.80;4.80;;;;;;;28.75;24.73;100743.45;110975;1250;22063;-78
2022/05/05 09:12:16;;;;;;;9.90;5.20;;;;;;;28.79;23.91;100739.69;110282;1257;21976;-79
2022/05/05 09:14:48;;;;;;;9.00;5.00;;;;;;;28.79;24.45;100738.38;110456;1257;23573;-78
2022/05/05 09:17:39;;;;;;;9.70;4.70;;;;;;;28.81;24.04;100737.70;110244;1258;23117;-78
2022/05/05 09:20:10;;;;;;;9.70;5.30;;;;;;;28.87;24.40;100734.42;110025;1257;23712;-78
2022/05/05 09:22:49;;;;;;;9.20;5.10;;;;;;;28.89;24.10;100734.57;109539;1263;23074;-77
2022/05/05 09:25:19;;;;;;;7.60;4.90;;;;;;;28.87;23.78;100735.94;109561;1262;23778;-78
2022/05/05 09:27:51;;;;;;;8.20;4.50;;;;;;;28.89;24.10;100730.60;109855;1261;22701;-79
2022/05/05 09:30:21;;;;;;;7.50;4.50;;;;;;;28.87;24.03;100734.59;109704;1258;22921;-78
2022/05/05 09:32:53;;;;;;;6.10;4.10;;;;;;;28.80;23.35;100732.77;110261;1257;22749;-78
2022/05/05 09:35:25;;;;;;;7.40;4.30;;;;;;;28.80;23.65;100727.66;109763;1259;22388;-78
2022/05/05 09:37:54;;;;;;;8.40;4.70;;;;;;;28.72;23.30;100732.48;109703;1257;23107;-78
2022/05/05 09:40:25;;;;;;;8.80;4.60;;;;;;;28.60;22.96;100734.88;110169;1260;22098;-77
2022/05/05 09:43:00;;;;;;;7.90;5.20;;;;;;;28.52;23.46;100735.79;110277;1257;23672;-76
2022/05/05 09:45:32;;;;;;;16.60;4.90;;;;;;;28.59;23.64;100729.18;110013;1257;22217;-78
2022/05/05 09:48:04;;;;;;;10.10;5.00;;;;;;;28.55;23.34;100730.71;110039;1257;23586;-78
2022/05/05 09:50:37;;;;;;;7.50;3.80;;;;;;;28.60;23.42;100726.95;110308;1257;21966;-78
2022/05/05 09:58:53;;;;;;;9.10;4.30;;;;;;;28.65;22.65;100719.95;110037;1257;22015;-77
2022/05/05 10:01:31;;;;;;;5.30;4.30;;;;;;;28.65;22.03;100721.64;109978;1257;21989;-77
2022/05/05 10:04:05;;;;;;;8.80;5.80;;;;;;;28.59;21.82;100730.70;110066;1257;22025;-76
2022/05/05 10:06:43;;;;;;;9.90;4.50;;;;;;;28.56;22.13;100732.39;110217;1257;22735;-77
2022/05/05 10:09:16;;;;;;;7.40;4.60;;;;;;;28.51;22.08;100731.55;110210;1257;22003;-77
2022/05/05 10:11:47;;;;;;;6.40;4.20;;;;;;;28.46;22.09;100729.55;109556;1263;22041;-76
2022/05/05 10:14:20;;;;;;;6.20;4.10;;;;;;;28.34;21.82;100729.30;109590;1263;22140;-77
2022/05/05 10:16:50;;;;;;;5.20;4.20;;;;;;;28.28;21.80;100728.45;109514;1263;22020;-77
2022/05/05 10:19:21;;;;;;;5.80;4.20;;;;;;;28.15;21.39;100724.36;108862;1270;22049;-78
2022/05/05 10:22:16;;;;;;;5.30;4.20;;;;;;;27.91;21.12;100719.42;108852;1270;23625;-76
2022/05/05 10:25:04;;;;;;;9.20;4.90;;;;;;;27.67;21.47;100719.37;108944;1269;21989;-77
2022/05/05 10:27:34;;;;;;;5.10;4.10;;;;;;;27.51;21.39;100716.33;108494;1275;22076;-76
2022/05/05 10:30:13;;;;;;;6.50;3.80;;;;;;;27.30;21.59;100716.11;108803;1267;22111;-79
2022/05/05 10:32:48;;;;;;;10.80;9.00;;;;;;;27.23;21.90;100712.25;109024;1263;21979;-77
2022/05/05 10:35:17;;;;;;;8.70;4.60;;;;;;;27.13;21.66;100710.98;109147;1264;21976;-75
2022/05/05 10:37:47;;;;;;;6.90;4.70;;;;;;;26.92;21.37;100709.67;109511;1263;21980;-78
2022/05/05 10:40:17;;;;;;;5.80;3.60;;;;;;;26.79;21.56;100709.91;109285;1264;22761;-76
2022/05/05 10:42:52;;;;;;;5.90;5.10;;;;;;;26.65;21.66;100710.64;108759;1270;23628;-77
2022/05/05 10:45:24;;;;;;;4.40;3.60;;;;;;;26.52;21.62;100708.14;109440;1263;22014;-80
2022/05/05 10:47:58;;;;;;;7.70;3.40;;;;;;;26.36;21.58;100703.02;109570;1263;23881;-78
2022/05/05 10:51:02;;;;;;;6.80;3.50;;;;;;;26.25;21.84;100703.89;109810;1262;22104;-77
2022/05/05 10:53:41;;;;;;;8.60;3.80;;;;;;;26.17;21.81;100706.08;110072;1257;23696;-78
2022/05/05 10:56:19;;;;;;;5.00;3.10;;;;;;;26.01;21.62;100703.64;109568;1263;21992;-78
2022/05/05 10:59:08;;;;;;;6.00;3.40;;;;;;;25.76;21.86;100699.31;109532;1263;21992;-76
2022/05/05 11:01:46;;;;;;;6.60;4.40;;;;;;;25.62;21.97;100694.16;109975;1259;21974;-76
2022/05/05 11:04:15;;;;;;;5.30;4.50;;;;;;;25.47;21.98;100691.98;110292;1256;22040;-77
2022/05/05 11:06:48;;;;;;;7.20;4.20;;;;;;;25.34;22.34;100691.07;110363;1258;23717;-78
2022/05/05 11:09:36;;;;;;;6.90;5.00;;;;;;;25.19;22.26;100691.85;110081;1257;23059;-78
2022/05/05 11:12:20;;;;;;;5.30;4.00;;;;;;;25.06;22.38;100687.87;109984;1257;22071;-77
2022/05/05 11:23:47;;;;;;;6.20;3.80;;;;;;;24.65;23.48;100684.25;110673;1251;23868;-76
2022/05/05 11:26:21;;;;;;;6.80;3.70;;;;;;;24.66;23.61;100681.83;110581;1252;21964;-77
2022/05/05 11:28:50;;;;;;;4.70;3.90;;;;;;;24.66;23.51;100682.58;110712;1251;22059;-77
2022/05/05 11:31:28;;;;;;;6.40;4.30;;;;;;;24.58;23.15;100682.83;110523;1251;22024;-77
2022/05/05 11:34:00;;;;;;;7.80;3.10;;;;;;;24.37;23.16;100677.48;110501;1254;23101;-77
2022/05/05 11:36:37;;;;;;;5.90;2.90;;;;;;;24.21;23.39;100674.94;110564;1252;25067;-77
2022/05/05 11:39:10;;;;;;;6.70;4.90;;;;;;;24.23;23.93;100673.99;110034;1260;23017;-77
2022/05/05 11:41:39;;;;;;;6.20;3.50;;;;;;;24.29;23.80;100673.38;109888;1259;23603;-78
2022/05/05 11:44:15;;;;;;;10.50;4.00;;;;;;;24.32;23.52;100675.41;110441;1258;21967;-77
2022/05/05 11:46:44;;;;;;;12.10;9.30;;;;;;;24.26;23.31;100674.10;109546;1263;21974;-75
2022/05/05 11:49:13;;;;;;;5.90;3.60;;;;;;;24.16;23.32;100670.78;109673;1263;23631;-77
2022/05/05 11:51:43;;;;;;;5.20;4.30;;;;;;;24.06;23.45;100670.16;109652;1263;23111;-82
2022/05/05 11:54:26;;;;;;;6.40;3.80;;;;;;;23.92;23.52;100666.84;109321;1265;23785;-80
2022/05/05 11:56:56;;;;;;;4.40;2.70;;;;;;;23.87;23.96;100659.44;109157;1262;21981;-77
2022/05/05 12:02:21;;;;;;;6.60;3.10;;;;;;;23.89;24.45;100656.27;109652;1263;22009;-76
2022/05/05 12:04:58;;;;;;;4.50;3.10;;;;;;;23.89;24.31;100654.72;109953;1261;23504;-76
2022/05/05 12:07:29;;;;;;;2.90;2.50;;;;;;;23.94;24.33;100655.00;109649;1263;22154;-77